createdAt,value
2022-09-15T00:00:52.846Z,18.90
2022-09-15T00:03:20.204Z,18.90
2022-09-15T00:05:47.013Z,18.90
2022-09-15T00:08:13.788Z,18.90
2022-09-15T00:10:48.960Z,18.90
2022-09-15T00:13:16.137Z,18.90
2022-09-15T00:15:42.974Z,18.90
2022-09-15T00:18:09.680Z,18.80
2022-09-15T00:20:40.222Z,18.90
2022-09-15T00:23:06.958Z,18.90
2022-09-15T00:25:33.710Z,18.90
2022-09-15T00:28:00.414Z,18.90
2022-09-15T00:30:27.498Z,18.90
2022-09-15T00:32:54.233Z,18.90
2022-09-15T00:35:20.937Z,18.90
2022-09-15T00:37:47.647Z,18.90
2022-09-15T00:40:14.573Z,18.80
2022-09-15T00:42:41.354Z,18.90
2022-09-15T00:45:14.104Z,18.80
2022-09-15T00:47:40.834Z,18.80
2022-09-15T00:50:10.426Z,18.80
2022-09-15T00:52:52.761Z,18.80
2022-09-15T00:55:28.549Z,18.80
2022-09-15T00:58:04.054Z,18.80
2022-09-15T01:00:30.883Z,18.80
2022-09-15T01:02:57.710Z,18.80
2022-09-15T01:05:28.235Z,18.80
2022-09-15T01:08:00.691Z,18.80
2022-09-15T01:10:34.448Z,18.80
2022-09-15T01:13:08.437Z,18.80
2022-09-15T01:15:48.473Z,18.90
2022-09-15T01:18:24.126Z,18.90
2022-09-15T01:20:56.677Z,18.80
2022-09-15T01:23:54.863Z,18.90
2022-09-15T01:26:40.233Z,18.90
2022-09-15T01:29:25.428Z,18.90
2022-09-15T01:32:24.402Z,18.90
2022-09-15T01:35:08.651Z,18.90
2022-09-15T01:37:38.562Z,18.80
2022-09-15T01:40:06.091Z,18.80
2022-09-15T01:42:32.864Z,18.80
2022-09-15T01:45:03.968Z,18.80
2022-09-15T01:47:30.777Z,18.80
2022-09-15T01:50:01.483Z,18.70
2022-09-15T01:52:29.166Z,18.70
2022-09-15T01:54:57.386Z,18.70
2022-09-15T01:57:24.131Z,18.70
2022-09-15T01:59:51.690Z,18.70
2022-09-15T02:02:24.981Z,18.70
2022-09-15T02:04:54.437Z,18.70
2022-09-15T02:07:25.469Z,18.60
2022-09-15T02:10:13.371Z,18.70
2022-09-15T02:12:45.184Z,18.70
2022-09-15T02:15:15.075Z,18.70
2022-09-15T02:17:43.453Z,18.70
2022-09-15T02:20:20.248Z,18.80
2022-09-15T02:22:49.050Z,18.80
2022-09-15T02:25:18.297Z,18.80
2022-09-15T02:27:47.192Z,18.70
2022-09-15T02:30:15.655Z,18.80
2022-09-15T02:32:48.156Z,18.80
2022-09-15T02:35:15.112Z,18.80
2022-09-15T02:37:41.879Z,18.90
2022-09-15T02:40:09.077Z,18.90
2022-09-15T02:42:35.976Z,18.90
2022-09-15T02:45:02.770Z,19.00
2022-09-15T02:47:29.517Z,19.00
2022-09-15T02:49:57.117Z,19.00
2022-09-15T02:52:23.949Z,19.00
2022-09-15T02:54:50.678Z,19.00
2022-09-15T02:57:17.434Z,19.00
2022-09-15T03:00:02.662Z,19.00
2022-09-15T03:02:29.873Z,19.00
2022-09-15T03:04:56.728Z,19.00
2022-09-15T03:07:24.924Z,19.00
2022-09-15T03:09:51.710Z,19.00
2022-09-15T03:12:18.420Z,19.00
2022-09-15T03:14:47.041Z,19.00
2022-09-15T03:17:13.824Z,19.00
2022-09-15T03:19:40.707Z,19.00
2022-09-15T03:22:07.465Z,19.10
2022-09-15T03:24:34.269Z,19.10
2022-09-15T03:27:01.032Z,19.20
2022-09-15T03:29:27.755Z,19.20
2022-09-15T03:31:54.661Z,19.20
2022-09-15T03:34:21.559Z,19.20
2022-09-15T03:36:48.261Z,19.20
2022-09-15T03:39:15.240Z,19.20
2022-09-15T03:41:41.983Z,19.10
2022-09-15T03:44:08.695Z,19.00
2022-09-15T03:46:35.713Z,19.00
2022-09-15T03:49:02.446Z,18.90
2022-09-15T03:51:29.147Z,18.90
2022-09-15T03:53:55.919Z,18.80
2022-09-15T03:56:23.863Z,18.80
2022-09-15T03:58:51.055Z,18.70
2022-09-15T04:01:19.068Z,18.70
2022-09-15T04:03:50.667Z,18.70
2022-09-15T04:06:18.819Z,18.60
2022-09-15T04:08:45.612Z,18.60
2022-09-15T04:11:12.495Z,18.50
2022-09-15T04:13:39.619Z,18.50
2022-09-15T04:16:08.229Z,18.40
2022-09-15T04:18:35.410Z,18.40
2022-09-15T04:21:03.807Z,18.40
2022-09-15T04:23:30.523Z,18.40
2022-09-15T04:26:05.709Z,18.30
2022-09-15T04:28:33.726Z,18.30
2022-09-15T04:31:08.392Z,18.30
2022-09-15T04:33:35.844Z,18.30
2022-09-15T04:36:07.198Z,18.30
2022-09-15T04:38:33.980Z,18.30
2022-09-15T04:41:01.829Z,18.20
2022-09-15T04:43:28.707Z,18.20
2022-09-15T04:45:55.495Z,18.20
2022-09-15T04:48:22.824Z,18.10
2022-09-15T04:50:49.605Z,18.10
2022-09-15T04:53:16.607Z,18.10
2022-09-15T04:55:43.505Z,18.10
2022-09-15T04:58:10.475Z,18.10
2022-09-15T05:00:47.624Z,18.10
2022-09-15T05:03:14.674Z,18.20
2022-09-15T05:05:41.630Z,18.20
2022-09-15T05:08:08.403Z,18.20
2022-09-15T05:10:35.198Z,18.30
2022-09-15T05:13:01.932Z,18.50
2022-09-15T05:15:28.681Z,18.60
2022-09-15T05:17:55.521Z,18.90
2022-09-15T05:20:22.763Z,19.10
2022-09-15T05:22:49.550Z,19.20
2022-09-15T05:25:16.600Z,19.40
2022-09-15T05:27:43.419Z,19.30
2022-09-15T05:30:35.794Z,19.40
2022-09-15T05:32:57.585Z,19.40
2022-09-15T05:35:24.380Z,19.40
2022-09-15T05:37:51.217Z,19.50
2022-09-15T05:40:20.743Z,19.50
2022-09-15T05:42:47.564Z,19.60
2022-09-15T05:45:14.642Z,19.70
2022-09-15T05:47:41.422Z,19.90
2022-09-15T05:50:08.514Z,20.20
2022-09-15T05:52:35.914Z,20.50
2022-09-15T05:55:02.685Z,20.60
2022-09-15T05:57:29.439Z,20.70
2022-09-15T05:59:56.248Z,20.70
2022-09-15T06:02:23.122Z,20.90
2022-09-15T06:04:50.000Z,21.20
2022-09-15T06:07:16.902Z,21.30
2022-09-15T06:09:44.043Z,21.40
2022-09-15T06:12:10.797Z,21.60
2022-09-15T06:14:37.555Z,21.80
2022-09-15T06:17:04.354Z,21.80
2022-09-15T06:19:31.186Z,21.90
2022-09-15T06:21:58.053Z,22.00
2022-09-15T06:24:24.813Z,21.90
2022-09-15T06:26:51.616Z,21.80
2022-09-15T06:29:18.506Z,21.70
2022-09-15T06:31:45.336Z,21.70
2022-09-15T06:34:12.173Z,21.50
2022-09-15T06:36:39.122Z,21.50
2022-09-15T06:39:05.920Z,21.50
2022-09-15T06:41:52.868Z,21.50
2022-09-15T06:44:19.936Z,21.60
2022-09-15T06:46:46.872Z,21.40
2022-09-15T06:49:14.110Z,21.40
2022-09-15T06:51:40.853Z,21.30
2022-09-15T06:54:07.639Z,21.20
2022-09-15T06:56:37.882Z,21.10
2022-09-15T06:59:05.173Z,21.10
2022-09-15T07:01:32.337Z,21.10
2022-09-15T07:04:00.832Z,21.00
2022-09-15T07:06:31.511Z,21.10
2022-09-15T07:09:02.636Z,21.10
2022-09-15T07:11:29.455Z,21.00
2022-09-15T07:13:56.214Z,21.10
2022-09-15T07:16:23.222Z,21.10
2022-09-15T07:18:49.957Z,21.30
2022-09-15T07:21:18.545Z,21.40
2022-09-15T07:23:45.409Z,21.40
2022-09-15T07:26:25.919Z,21.60
2022-09-15T07:28:55.386Z,21.70
2022-09-15T07:31:23.211Z,21.80
2022-09-15T07:33:50.395Z,21.80
2022-09-15T07:36:17.313Z,21.80
2022-09-15T07:38:45.421Z,21.80
2022-09-15T07:41:17.341Z,21.80
2022-09-15T07:43:50.508Z,21.80
2022-09-15T07:46:18.075Z,21.80
2022-09-15T07:48:49.334Z,21.80
2022-09-15T07:51:16.208Z,21.70
2022-09-15T07:53:43.615Z,21.70
2022-09-15T07:56:10.426Z,21.60
2022-09-15T07:58:37.223Z,21.60
2022-09-15T08:01:05.143Z,21.50
2022-09-15T08:03:32.055Z,21.50
2022-09-15T08:06:02.587Z,21.50
2022-09-15T08:08:29.578Z,21.40
2022-09-15T08:10:56.499Z,21.40
2022-09-15T08:13:24.348Z,21.40
2022-09-15T08:15:51.864Z,21.40
2022-09-15T08:18:18.675Z,21.50
2022-09-15T08:20:45.463Z,21.50
2022-09-15T08:23:12.456Z,21.60
2022-09-15T08:25:39.258Z,21.70
2022-09-15T08:28:06.096Z,21.70
2022-09-15T08:30:34.080Z,21.80
2022-09-15T08:33:00.907Z,21.80
2022-09-15T08:35:27.772Z,21.80
2022-09-15T08:37:55.300Z,21.80
2022-09-15T08:40:35.422Z,21.80
2022-09-15T08:43:06.339Z,21.80
2022-09-15T08:45:37.965Z,21.80
2022-09-15T08:48:04.815Z,21.80
2022-09-15T08:50:41.010Z,21.80
2022-09-15T08:53:15.546Z,21.90
2022-09-15T08:55:49.358Z,21.90
2022-09-15T08:58:25.803Z,21.90
2022-09-15T09:01:04.050Z,21.90
2022-09-15T09:03:33.819Z,22.00
2022-09-15T09:06:36.947Z,22.00
2022-09-15T09:09:06.303Z,22.00
2022-09-15T09:11:52.015Z,22.10
2022-09-15T09:14:54.160Z,22.10
2022-09-15T09:17:24.529Z,22.10
2022-09-15T09:20:35.675Z,22.10
2022-09-15T09:23:03.842Z,22.20
2022-09-15T09:25:31.267Z,22.20
2022-09-15T09:27:58.389Z,22.20
2022-09-15T09:30:26.190Z,22.10
2022-09-15T09:33:24.065Z,21.90
2022-09-15T09:35:54.137Z,21.80
2022-09-15T09:38:31.797Z,21.70
2022-09-15T09:41:02.088Z,21.50
2022-09-15T09:43:29.594Z,21.40
2022-09-15T09:45:56.546Z,21.30
2022-09-15T09:48:24.454Z,21.20
2022-09-15T09:50:51.278Z,21.10
2022-09-15T09:53:33.719Z,21.00
2022-09-15T09:56:16.510Z,20.90
2022-09-15T09:58:43.519Z,20.90
2022-09-15T10:01:17.972Z,20.80
2022-09-15T10:03:45.326Z,20.60
2022-09-15T10:06:22.338Z,20.60
2022-09-15T10:09:05.637Z,20.50
2022-09-15T10:11:45.358Z,20.30
2022-09-15T10:14:30.348Z,20.20
2022-09-15T10:16:58.896Z,20.20
2022-09-15T10:19:26.413Z,20.20
2022-09-15T10:21:53.167Z,20.20
2022-09-15T10:24:39.510Z,20.20
2022-09-15T10:27:13.670Z,20.30
2022-09-15T10:29:40.499Z,20.30
2022-09-15T10:32:24.306Z,20.40
2022-09-15T10:35:18.736Z,20.40
2022-09-15T10:38:00.346Z,20.40
2022-09-15T10:40:34.934Z,20.30
2022-09-15T10:43:27.726Z,20.30
2022-09-15T10:46:00.730Z,20.30
2022-09-15T10:48:27.414Z,20.20
2022-09-15T10:51:06.211Z,20.30
2022-09-15T10:53:44.432Z,20.30
2022-09-15T10:56:16.082Z,20.30
2022-09-15T10:59:00.595Z,20.20
2022-09-15T11:01:30.355Z,20.20
2022-09-15T11:04:06.660Z,20.10
2022-09-15T11:06:55.219Z,20.10
2022-09-15T11:09:33.405Z,20.10
2022-09-15T11:12:34.527Z,20.10
2022-09-15T11:15:14.690Z,20.00
2022-09-15T11:18:05.266Z,20.00
2022-09-15T11:20:39.272Z,20.00
2022-09-15T11:23:15.693Z,20.00
2022-09-15T11:25:44.504Z,20.00
2022-09-15T11:28:23.278Z,20.00
2022-09-15T11:31:04.080Z,20.00
2022-09-15T11:33:54.035Z,19.90
2022-09-15T11:36:35.041Z,19.90
2022-09-15T11:39:12.277Z,20.00
2022-09-15T11:41:57.891Z,20.00
2022-09-15T11:44:35.473Z,20.00
2022-09-15T11:47:05.242Z,20.00
2022-09-15T11:49:37.159Z,20.00
2022-09-15T11:52:26.025Z,19.90
2022-09-15T11:55:01.974Z,19.80
2022-09-15T11:57:32.537Z,19.80
2022-09-15T12:00:19.608Z,19.60
2022-09-15T12:03:10.464Z,19.60
2022-09-15T12:05:40.928Z,19.40
2022-09-15T12:08:24.707Z,19.30
2022-09-15T12:10:53.327Z,19.20
2022-09-15T12:13:21.862Z,19.10
2022-09-15T12:15:48.939Z,19.10
2022-09-15T12:18:40.100Z,19.00
2022-09-15T12:21:36.018Z,19.00
2022-09-15T12:24:17.578Z,19.00
2022-09-15T12:26:46.691Z,19.00
2022-09-15T12:29:29.239Z,19.00
2022-09-15T12:32:19.217Z,18.90
2022-09-15T12:34:55.414Z,19.00
2022-09-15T12:37:22.166Z,18.90
2022-09-15T12:39:49.056Z,18.90
2022-09-15T12:42:18.897Z,18.90
2022-09-15T12:44:54.965Z,18.90
2022-09-15T12:47:49.738Z,18.80
2022-09-15T12:50:16.470Z,18.80
2022-09-15T12:52:51.605Z,18.80
2022-09-15T12:55:25.175Z,18.90
2022-09-15T12:57:54.109Z,19.00
2022-09-15T13:00:20.819Z,19.10
2022-09-15T13:02:48.251Z,19.10
2022-09-15T13:05:35.191Z,19.30
2022-09-15T13:08:01.955Z,19.30
2022-09-15T13:10:31.735Z,19.40
2022-09-15T13:13:11.692Z,19.40
2022-09-15T13:15:44.106Z,19.40
2022-09-15T13:18:11.563Z,19.40
2022-09-15T13:20:38.745Z,19.50
2022-09-15T13:23:07.116Z,19.50
2022-09-15T13:25:33.984Z,19.60
2022-09-15T13:28:01.413Z,19.70
2022-09-15T13:30:40.392Z,19.70
2022-09-15T13:33:25.787Z,19.70
2022-09-15T13:35:52.742Z,19.80
2022-09-15T13:38:34.581Z,19.80
2022-09-15T13:41:08.404Z,19.80
2022-09-15T13:44:12.579Z,19.80
2022-09-15T13:47:12.747Z,19.80
2022-09-15T13:49:50.870Z,19.90
2022-09-15T13:52:23.393Z,19.90
2022-09-15T13:55:12.410Z,20.00
2022-09-15T14:00:46.727Z,20.20
2022-09-15T14:03:16.415Z,20.30
2022-09-15T14:05:43.404Z,20.40
2022-09-15T14:08:22.814Z,20.50
2022-09-15T14:10:55.250Z,20.60
2022-09-15T14:13:22.931Z,20.60
2022-09-15T14:16:00.759Z,20.60
2022-09-15T14:18:29.461Z,20.60
2022-09-15T14:21:00.651Z,20.60
2022-09-15T14:23:27.532Z,20.70
2022-09-15T14:25:54.377Z,20.70
2022-09-15T14:28:29.488Z,20.90
2022-09-15T14:31:01.381Z,20.80
2022-09-15T14:33:37.921Z,20.90
2022-09-15T14:36:22.347Z,20.90
2022-09-15T14:39:10.400Z,21.00
2022-09-15T14:41:37.857Z,21.00
2022-09-15T14:47:18.555Z,20.90
2022-09-15T14:49:45.338Z,20.80
2022-09-15T14:52:28.428Z,20.80
2022-09-15T14:54:56.852Z,20.80
2022-09-15T14:57:28.725Z,20.80
2022-09-15T15:00:01.012Z,20.80
2022-09-15T15:02:31.582Z,20.90
2022-09-15T15:05:08.881Z,21.00
2022-09-15T15:07:36.677Z,21.10
2022-09-15T15:10:13.178Z,21.20
2022-09-15T15:12:41.154Z,21.20
2022-09-15T15:15:09.925Z,21.20
2022-09-15T15:17:44.545Z,21.20
2022-09-15T15:20:11.289Z,21.10
2022-09-15T15:22:38.251Z,21.10
2022-09-15T15:25:21.156Z,21.00
2022-09-15T15:27:52.105Z,20.90
2022-09-15T15:30:35.895Z,20.90
2022-09-15T15:33:24.622Z,20.80
2022-09-15T15:36:22.619Z,20.70
2022-09-15T15:38:52.078Z,20.60
2022-09-15T15:41:26.336Z,20.60
2022-09-15T15:43:59.230Z,20.60
2022-09-15T15:46:44.681Z,20.50
2022-09-15T15:49:13.289Z,20.50
2022-09-15T15:51:41.225Z,20.60
2022-09-15T15:54:08.018Z,20.70
2022-09-15T15:56:38.040Z,20.70
2022-09-15T15:59:05.843Z,20.60
2022-09-15T16:01:33.036Z,20.60
2022-09-15T16:03:59.899Z,20.50
2022-09-15T16:06:26.719Z,20.50
2022-09-15T16:08:53.653Z,20.40
2022-09-15T16:11:20.942Z,20.30
2022-09-15T16:13:48.388Z,20.30
2022-09-15T16:16:20.462Z,20.20
2022-09-15T16:18:47.382Z,20.20
2022-09-15T16:21:32.335Z,20.10
2022-09-15T16:23:59.203Z,20.00
2022-09-15T16:26:26.672Z,20.00
2022-09-15T16:28:53.650Z,19.90
2022-09-15T16:31:20.590Z,19.80
2022-09-15T16:33:47.362Z,19.70
2022-09-15T16:36:15.905Z,19.60
2022-09-15T16:38:49.519Z,19.60
2022-09-15T16:41:25.419Z,19.40
2022-09-15T16:43:58.571Z,19.40
2022-09-15T16:47:18.114Z,19.30
2022-09-15T16:49:55.378Z,19.10
2022-09-15T16:52:22.370Z,19.10
2022-09-15T16:54:49.154Z,19.10
2022-09-15T16:57:18.083Z,19.00
2022-09-15T16:59:47.609Z,18.90
2022-09-15T17:02:14.500Z,18.90
2022-09-15T17:04:41.366Z,18.80
2022-09-15T17:07:08.259Z,18.80
2022-09-15T17:09:35.026Z,18.80
2022-09-15T17:12:02.199Z,18.80
2022-09-15T17:14:28.989Z,18.80
2022-09-15T17:16:55.936Z,18.70
2022-09-15T17:19:22.687Z,18.60
2022-09-15T17:21:50.228Z,18.60
2022-09-15T17:24:17.543Z,18.50
2022-09-15T17:26:44.303Z,18.50
2022-09-15T17:29:11.000Z,18.40
2022-09-15T17:31:38.291Z,18.40
2022-09-15T17:34:06.406Z,18.30
2022-09-15T17:36:42.509Z,18.40
2022-09-15T17:39:09.411Z,18.30
2022-09-15T17:41:36.257Z,18.30
2022-09-15T17:44:12.480Z,18.20
2022-09-15T17:46:39.576Z,18.20
2022-09-15T17:49:06.949Z,18.20
2022-09-15T17:51:33.779Z,18.10
2022-09-15T17:54:00.672Z,18.10
2022-09-15T17:57:03.048Z,18.10
2022-09-15T18:00:05.060Z,18.00
2022-09-15T18:02:42.642Z,18.00
2022-09-15T18:06:00.992Z,18.00
2022-09-15T18:08:35.320Z,17.90
2022-09-15T18:11:32.016Z,17.90
2022-09-15T18:14:26.058Z,17.90
2022-09-15T18:17:19.459Z,17.80
2022-09-15T18:19:58.981Z,17.80
2022-09-15T18:22:58.930Z,17.80
2022-09-15T18:25:43.815Z,17.70
2022-09-15T18:28:32.106Z,17.70
2022-09-15T18:31:15.274Z,17.70
2022-09-15T18:34:05.929Z,17.70
2022-09-15T18:36:44.033Z,17.50
2022-09-15T18:39:23.283Z,17.50
2022-09-15T18:42:35.804Z,17.50
2022-09-15T18:45:11.983Z,17.50
2022-09-15T18:47:56.917Z,17.50
2022-09-15T18:50:32.187Z,17.50
2022-09-15T18:53:10.628Z,17.50
2022-09-15T18:55:47.856Z,17.50
2022-09-15T18:58:28.352Z,17.50
2022-09-15T19:01:08.371Z,17.60
2022-09-15T19:03:47.353Z,17.60
2022-09-15T19:06:31.354Z,17.70
2022-09-15T19:09:11.055Z,17.90
2022-09-15T19:11:51.670Z,17.80
2022-09-15T19:14:30.029Z,17.90
2022-09-15T19:17:08.432Z,17.90
2022-09-15T19:19:47.184Z,17.90
2022-09-15T19:26:01.120Z,17.90
2022-09-15T19:29:20.296Z,18.00
2022-09-15T19:32:24.436Z,18.00
2022-09-15T19:35:33.882Z,18.10
2022-09-15T19:38:35.376Z,18.10
2022-09-15T19:41:26.093Z,18.10
2022-09-15T19:44:16.971Z,18.20
2022-09-15T19:47:12.607Z,18.20
2022-09-15T19:49:55.054Z,18.20
2022-09-15T19:52:54.238Z,18.20
2022-09-15T19:56:13.549Z,18.10
2022-09-15T19:59:07.867Z,18.10
2022-09-15T20:02:04.730Z,18.00
2022-09-15T20:04:58.673Z,17.90
2022-09-15T20:07:44.179Z,17.80
2022-09-15T20:10:26.907Z,17.70
2022-09-15T20:13:08.168Z,17.70
2022-09-15T20:15:52.021Z,17.60
2022-09-15T20:18:32.217Z,17.60
2022-09-15T20:21:32.660Z,17.50
2022-09-15T20:24:15.087Z,17.50
2022-09-15T20:26:56.183Z,17.50
2022-09-15T20:29:33.049Z,17.50
2022-09-15T20:32:08.802Z,17.50
2022-09-15T20:34:49.036Z,17.50
2022-09-15T20:37:30.589Z,17.60
2022-09-15T20:40:11.995Z,17.50
2022-09-15T20:42:53.278Z,17.50
2022-09-15T20:45:33.891Z,17.50
2022-09-15T20:48:13.986Z,17.30
2022-09-15T20:50:50.674Z,17.00
2022-09-15T20:53:30.605Z,16.80
2022-09-15T20:56:04.054Z,16.60
2022-09-15T20:58:43.689Z,16.50
2022-09-15T21:01:25.936Z,16.40
2022-09-15T21:04:06.341Z,16.40
2022-09-15T21:06:46.066Z,16.30
2022-09-15T21:09:22.140Z,16.30
2022-09-15T21:12:14.156Z,16.20
2022-09-15T21:14:55.475Z,16.20
2022-09-15T21:17:33.129Z,16.20
2022-09-15T21:20:14.427Z,16.20
2022-09-15T21:22:54.927Z,16.20
2022-09-15T21:25:38.783Z,16.20
2022-09-15T21:28:23.318Z,16.20
2022-09-15T21:31:01.722Z,16.20
2022-09-15T21:33:36.810Z,16.20
2022-09-15T21:36:37.058Z,16.20
2022-09-15T21:39:17.202Z,16.20
2022-09-15T21:42:24.957Z,16.20
2022-09-15T21:45:04.013Z,16.10
2022-09-15T21:47:39.687Z,16.10
2022-09-15T21:50:07.629Z,16.00
2022-09-15T21:52:34.392Z,15.90
2022-09-15T21:55:01.659Z,15.90
2022-09-15T21:57:28.451Z,15.90
2022-09-15T21:59:55.277Z,15.90
2022-09-15T22:02:22.438Z,15.90
2022-09-15T22:04:49.438Z,15.90
2022-09-15T22:07:17.374Z,15.80
2022-09-15T22:09:44.112Z,15.70
2022-09-15T22:12:10.904Z,15.70
2022-09-15T22:14:37.631Z,15.70
2022-09-15T22:17:04.499Z,15.60
2022-09-15T22:19:31.250Z,15.50
2022-09-15T22:21:58.020Z,15.50
2022-09-15T22:24:24.896Z,15.50
2022-09-15T22:26:51.663Z,15.40
2022-09-15T22:29:18.461Z,15.40
2022-09-15T22:31:45.250Z,15.50
2022-09-15T22:34:12.458Z,15.50
2022-09-15T22:36:39.240Z,15.60
2022-09-15T22:39:06.338Z,15.60
2022-09-15T22:41:35.132Z,15.60
2022-09-15T22:44:02.700Z,15.50
2022-09-15T22:46:29.499Z,15.50
2022-09-15T22:48:56.366Z,15.50
2022-09-15T22:51:23.464Z,15.50
2022-09-15T22:53:54.138Z,15.50
2022-09-15T22:56:21.101Z,15.50
2022-09-15T22:58:48.419Z,15.50
2022-09-15T23:01:20.016Z,15.40
2022-09-15T23:03:53.888Z,15.50
2022-09-15T23:06:21.599Z,15.40
2022-09-15T23:08:55.534Z,15.40
2022-09-15T23:11:22.485Z,15.40
2022-09-15T23:13:49.422Z,15.40
2022-09-15T23:16:16.406Z,15.30
2022-09-15T23:18:43.223Z,15.30
2022-09-15T23:21:10.504Z,15.30
2022-09-15T23:23:38.448Z,15.30
2022-09-15T23:26:07.772Z,15.20
2022-09-15T23:28:34.550Z,15.20
2022-09-15T23:31:01.515Z,15.20
2022-09-15T23:33:29.106Z,15.20
2022-09-15T23:35:55.948Z,15.10
2022-09-15T23:38:22.862Z,15.10
2022-09-15T23:40:50.601Z,15.00
2022-09-15T23:43:17.454Z,15.10
2022-09-15T23:45:44.626Z,15.00
2022-09-15T23:48:12.042Z,15.00
2022-09-15T23:50:39.035Z,15.10
2022-09-15T23:53:06.060Z,15.00
2022-09-15T23:55:32.965Z,15.10
2022-09-15T23:57:59.839Z,15.10
